createdAt,value
2022-08-22T00:02:19.825Z,100.00
2022-08-22T00:03:04.030Z,98.82
2022-08-22T00:04:56.816Z,100.00
2022-08-22T00:07:37.025Z,100.00
2022-08-22T00:10:12.088Z,100.00
2022-08-22T00:13:01.845Z,100.00
2022-08-22T00:15:43.071Z,100.00
2022-08-22T00:18:17.191Z,100.00
2022-08-22T00:20:50.169Z,100.00
2022-08-22T00:23:24.008Z,100.00
2022-08-22T00:25:58.966Z,100.00
2022-08-22T00:28:35.567Z,100.00
2022-08-22T00:31:15.529Z,100.00
2022-08-22T00:33:49.119Z,100.00
2022-08-22T00:36:25.502Z,100.00
2022-08-22T00:39:00.006Z,100.00
2022-08-22T00:42:10.471Z,100.00
2022-08-22T00:45:14.783Z,100.00
2022-08-22T00:47:57.857Z,100.00
2022-08-22T00:50:44.298Z,100.00
2022-08-22T00:53:37.649Z,100.00
2022-08-22T00:56:50.882Z,100.00
2022-08-22T00:59:39.023Z,100.00
2022-08-22T01:02:21.896Z,100.00
2022-08-22T01:05:17.955Z,100.00
2022-08-22T01:08:03.995Z,100.00
2022-08-22T01:10:50.986Z,100.00
2022-08-22T01:13:35.002Z,100.00
2022-08-22T01:16:21.171Z,100.00
2022-08-22T01:19:23.146Z,100.00
2022-08-22T01:22:24.771Z,100.00
2022-08-22T01:25:33.809Z,100.00
2022-08-22T01:28:27.311Z,100.00
2022-08-22T01:31:46.815Z,100.00
2022-08-22T01:34:57.860Z,100.00
2022-08-22T01:37:48.818Z,100.00
2022-08-22T01:40:53.975Z,100.00
2022-08-22T01:43:59.994Z,100.00
2022-08-22T01:46:35.952Z,100.00
2022-08-22T01:49:13.757Z,100.00
2022-08-22T01:51:47.693Z,100.00
2022-08-22T01:54:30.994Z,100.00
2022-08-22T01:57:03.148Z,100.00
2022-08-22T01:59:42.318Z,100.00
2022-08-22T02:02:38.529Z,100.00
2022-08-22T02:05:20.501Z,100.00
2022-08-22T02:07:58.598Z,100.00
2022-08-22T02:10:48.157Z,100.00
2022-08-22T02:13:34.466Z,100.00
2022-08-22T02:16:12.241Z,100.00
2022-08-22T02:18:57.944Z,100.00
2022-08-22T02:21:40.579Z,100.00
2022-08-22T02:24:24.871Z,100.00
2022-08-22T02:27:06.097Z,100.00
2022-08-22T02:29:41.529Z,100.00
2022-08-22T02:32:19.980Z,100.00
2022-08-22T02:34:59.542Z,100.00
2022-08-22T02:37:35.812Z,100.00
2022-08-22T02:40:11.224Z,100.00
2022-08-22T02:42:44.955Z,100.00
2022-08-22T02:45:38.917Z,100.00
2022-08-22T02:48:15.817Z,100.00
2022-08-22T02:50:52.691Z,100.00
2022-08-22T02:53:29.568Z,100.00
2022-08-22T02:56:03.174Z,100.00
2022-08-22T02:58:43.495Z,100.00
2022-08-22T03:01:34.403Z,100.00
2022-08-22T03:04:23.522Z,100.00
2022-08-22T03:07:09.097Z,100.00
2022-08-22T03:09:41.154Z,100.00
2022-08-22T03:12:22.310Z,100.00
2022-08-22T03:14:59.384Z,100.00
2022-08-22T03:17:32.588Z,100.00
2022-08-22T03:20:07.147Z,100.00
2022-08-22T03:22:45.766Z,100.00
2022-08-22T03:25:26.977Z,100.00
2022-08-22T03:28:00.514Z,100.00
2022-08-22T03:30:38.667Z,100.00
2022-08-22T03:33:19.676Z,100.00
2022-08-22T03:36:04.974Z,100.00
2022-08-22T03:38:47.788Z,100.00
2022-08-22T03:41:39.252Z,100.00
2022-08-22T03:44:54.066Z,100.00
2022-08-22T03:47:51.759Z,100.00
2022-08-22T03:50:55.108Z,100.00
2022-08-22T03:53:37.820Z,100.00
2022-08-22T03:56:40.773Z,100.00
2022-08-22T03:59:42.529Z,100.00
2022-08-22T04:02:42.845Z,100.00
2022-08-22T04:05:34.633Z,100.00
2022-08-22T04:08:31.776Z,100.00
2022-08-22T04:11:41.296Z,100.00
2022-08-22T04:14:26.324Z,100.00
2022-08-22T04:17:13.005Z,100.00
2022-08-22T04:20:06.316Z,100.00
2022-08-22T04:22:53.728Z,100.00
2022-08-22T04:25:25.561Z,100.00
2022-08-22T04:27:59.534Z,100.00
2022-08-22T04:30:34.383Z,100.00
2022-08-22T04:33:09.729Z,100.00
2022-08-22T04:35:44.032Z,100.00
2022-08-22T04:38:17.897Z,100.00
2022-08-22T04:40:51.532Z,100.00
2022-08-22T04:43:25.592Z,100.00
2022-08-22T04:45:58.881Z,100.00
2022-08-22T04:48:33.575Z,100.00
2022-08-22T04:51:11.333Z,100.00
2022-08-22T04:54:03.398Z,100.00
2022-08-22T04:56:39.949Z,100.00
2022-08-22T04:59:12.216Z,100.00
2022-08-22T05:01:44.360Z,100.00
2022-08-22T05:04:17.482Z,100.00
2022-08-22T05:06:51.615Z,100.00
2022-08-22T05:09:25.691Z,100.00
2022-08-22T05:11:58.055Z,100.00
2022-08-22T05:14:34.745Z,100.00
2022-08-22T05:17:04.365Z,100.00
2022-08-22T05:19:35.793Z,100.00
2022-08-22T05:22:07.805Z,100.00
2022-08-22T05:24:40.523Z,100.00
2022-08-22T05:27:12.478Z,100.00
2022-08-22T05:29:43.580Z,100.00
2022-08-22T05:32:18.669Z,100.00
2022-08-22T05:34:48.949Z,100.00
2022-08-22T05:37:27.087Z,100.00
2022-08-22T05:39:59.267Z,100.00
2022-08-22T05:42:31.653Z,100.00
2022-08-22T05:45:03.064Z,100.00
2022-08-22T05:47:37.667Z,100.00
2022-08-22T05:50:09.864Z,100.00
2022-08-22T05:52:54.845Z,100.00
2022-08-22T05:55:28.081Z,100.00
2022-08-22T05:58:13.847Z,100.00
2022-08-22T06:00:48.348Z,100.00
2022-08-22T06:03:25.253Z,100.00
2022-08-22T06:05:57.459Z,100.00
2022-08-22T06:08:36.207Z,100.00
2022-08-22T06:11:09.218Z,100.00
2022-08-22T06:13:41.397Z,100.00
2022-08-22T06:16:16.899Z,100.00
2022-08-22T06:18:46.385Z,100.00
2022-08-22T06:21:21.377Z,100.00
2022-08-22T06:23:56.660Z,100.00
2022-08-22T06:26:26.658Z,100.00
2022-08-22T06:28:59.064Z,100.00
2022-08-22T06:31:31.876Z,100.00
2022-08-22T06:34:04.381Z,100.00
2022-08-22T06:36:35.838Z,100.00
2022-08-22T06:39:15.723Z,100.00
2022-08-22T06:41:50.886Z,100.00
2022-08-22T06:44:23.133Z,100.00
2022-08-22T06:46:54.702Z,100.00
2022-08-22T06:49:24.635Z,100.00
2022-08-22T06:51:54.770Z,100.00
2022-08-22T06:54:32.496Z,100.00
2022-08-22T06:57:07.655Z,100.00
2022-08-22T06:59:39.349Z,100.00
2022-08-22T07:02:17.476Z,100.00
2022-08-22T07:04:49.710Z,100.00
2022-08-22T07:07:20.769Z,100.00
2022-08-22T07:09:55.424Z,100.00
2022-08-22T07:12:29.711Z,100.00
2022-08-22T07:15:12.130Z,100.00
2022-08-22T07:17:50.589Z,100.00
2022-08-22T07:20:25.521Z,100.00
2022-08-22T07:22:58.193Z,100.00
2022-08-22T07:25:29.013Z,100.00
2022-08-22T07:28:16.320Z,100.00
2022-08-22T07:30:56.410Z,100.00
2022-08-22T07:33:42.409Z,100.00
2022-08-22T07:36:23.233Z,100.00
2022-08-22T07:39:11.223Z,100.00
2022-08-22T07:41:52.624Z,100.00
2022-08-22T07:44:25.412Z,100.00
2022-08-22T07:47:00.311Z,100.00
2022-08-22T07:49:31.651Z,100.00
2022-08-22T07:52:03.812Z,100.00
2022-08-22T07:54:38.657Z,100.00
2022-08-22T07:57:13.993Z,100.00
2022-08-22T07:59:48.364Z,100.00
2022-08-22T08:02:19.604Z,100.00
2022-08-22T08:04:50.293Z,100.00
2022-08-22T08:07:22.270Z,100.00
2022-08-22T08:09:54.286Z,100.00
2022-08-22T08:12:31.812Z,100.00
2022-08-22T08:15:01.082Z,100.00
2022-08-22T08:17:35.396Z,100.00
2022-08-22T08:20:09.829Z,100.00
2022-08-22T08:22:39.463Z,100.00
2022-08-22T08:25:09.275Z,100.00
2022-08-22T08:27:57.490Z,100.00
2022-08-22T08:30:37.598Z,100.00
2022-08-22T08:33:24.236Z,100.00
2022-08-22T08:36:02.592Z,100.00
2022-08-22T08:38:36.855Z,100.00
2022-08-22T08:41:41.431Z,100.00
2022-08-22T08:44:27.094Z,100.00
2022-08-22T08:47:17.113Z,100.00
2022-08-22T08:50:17.446Z,100.00
2022-08-22T08:53:03.430Z,100.00
2022-08-22T08:55:44.902Z,100.00
2022-08-22T08:58:34.147Z,100.00
2022-08-22T09:01:29.627Z,100.00
2022-08-22T09:04:31.825Z,100.00
2022-08-22T09:07:32.986Z,100.00
2022-08-22T09:10:29.540Z,100.00
2022-08-22T09:13:14.641Z,100.00
2022-08-22T09:16:04.969Z,100.00
2022-08-22T09:18:57.854Z,100.00
2022-08-22T09:22:00.019Z,100.00
2022-08-22T09:25:16.127Z,100.00
2022-08-22T09:27:52.818Z,100.00
2022-08-22T09:30:28.764Z,100.00
2022-08-22T09:33:00.876Z,100.00
2022-08-22T09:35:44.710Z,100.00
2022-08-22T09:38:27.562Z,100.00
2022-08-22T09:41:06.963Z,100.00
2022-08-22T09:43:44.211Z,100.00
2022-08-22T09:46:22.363Z,100.00
2022-08-22T09:49:05.496Z,97.77
2022-08-22T09:51:42.807Z,95.07
2022-08-22T09:54:18.713Z,91.31
2022-08-22T09:56:57.531Z,90.63
2022-08-22T09:59:49.349Z,84.57
2022-08-22T10:02:29.639Z,86.45
2022-08-22T10:05:08.443Z,82.40
2022-08-22T10:08:07.212Z,83.53
2022-08-22T10:11:01.943Z,81.44
2022-08-22T10:13:57.248Z,74.73
2022-08-22T10:16:34.151Z,74.32
2022-08-22T10:19:16.577Z,74.40
2022-08-22T10:22:06.312Z,71.40
2022-08-22T10:24:46.272Z,69.32
2022-08-22T10:27:20.380Z,68.11
2022-08-22T10:30:04.726Z,66.21
2022-08-22T10:32:39.850Z,66.53
2022-08-22T10:35:20.958Z,66.63
2022-08-22T10:37:57.638Z,63.46
2022-08-22T10:40:33.176Z,63.76
2022-08-22T10:43:12.299Z,59.77
2022-08-22T10:45:44.710Z,57.93
2022-08-22T10:48:35.566Z,58.15
2022-08-22T10:51:12.716Z,57.49
2022-08-22T10:53:55.913Z,56.74
2022-08-22T10:56:30.461Z,56.56
2022-08-22T10:59:09.566Z,56.25
2022-08-22T11:01:48.238Z,55.30
2022-08-22T11:04:30.470Z,56.20
2022-08-22T11:07:15.249Z,56.91
2022-08-22T11:09:44.741Z,58.64
2022-08-22T11:12:23.421Z,61.00
2022-08-22T11:15:10.572Z,61.03
2022-08-22T11:18:21.779Z,55.65
2022-08-22T11:21:00.191Z,56.10
2022-08-22T11:23:41.936Z,53.72
2022-08-22T11:26:46.659Z,49.55
2022-08-22T11:29:27.764Z,49.96
2022-08-22T11:32:07.785Z,48.22
2022-08-22T11:34:47.880Z,48.45
2022-08-22T11:37:43.390Z,46.86
2022-08-22T11:40:25.751Z,48.68
2022-08-22T11:43:03.177Z,47.57
2022-08-22T11:45:40.802Z,46.26
2022-08-22T11:48:17.695Z,46.40
2022-08-22T11:50:51.339Z,45.67
2022-08-22T11:53:27.535Z,45.44
2022-08-22T11:56:10.429Z,42.43
2022-08-22T11:58:51.132Z,41.80
2022-08-22T12:01:35.401Z,41.31
2022-08-22T12:04:12.951Z,42.03
2022-08-22T12:07:01.861Z,43.01
2022-08-22T12:09:47.809Z,42.77
2022-08-22T12:12:27.669Z,43.17
2022-08-22T12:15:02.175Z,42.53
2022-08-22T12:18:04.405Z,39.76
2022-08-22T12:20:54.380Z,37.97
2022-08-22T12:23:49.195Z,38.36
2022-08-22T12:26:27.998Z,38.33
2022-08-22T12:29:15.470Z,38.35
2022-08-22T12:32:20.630Z,38.17
2022-08-22T12:35:16.886Z,38.83
2022-08-22T12:37:56.586Z,38.75
2022-08-22T12:40:38.226Z,37.42
2022-08-22T12:43:32.370Z,38.41
2022-08-22T12:46:20.656Z,37.62
2022-08-22T12:49:07.667Z,37.12
2022-08-22T12:51:58.097Z,37.82
2022-08-22T12:54:59.326Z,37.69
2022-08-22T12:57:42.952Z,38.46
2022-08-22T13:00:26.757Z,38.23
2022-08-22T13:02:56.862Z,37.52
2022-08-22T13:05:30.601Z,37.81
2022-08-22T13:08:07.702Z,37.77
2022-08-22T13:10:47.881Z,37.89
2022-08-22T13:13:36.446Z,38.22
2022-08-22T13:16:11.689Z,37.57
2022-08-22T13:18:46.584Z,37.18
2022-08-22T13:21:31.440Z,36.19
2022-08-22T13:24:10.832Z,36.40
2022-08-22T13:26:49.369Z,35.63
2022-08-22T13:29:27.112Z,35.00
2022-08-22T13:32:00.236Z,34.33
2022-08-22T13:34:47.785Z,34.58
2022-08-22T13:37:24.459Z,34.60
2022-08-22T13:40:01.773Z,35.30
2022-08-22T13:42:33.528Z,35.06
2022-08-22T13:45:05.713Z,34.97
2022-08-22T13:47:39.321Z,34.56
2022-08-22T13:50:13.949Z,35.12
2022-08-22T13:52:49.401Z,35.55
2022-08-22T13:55:36.537Z,36.24
2022-08-22T13:58:11.404Z,36.79
2022-08-22T14:01:18.745Z,37.52
2022-08-22T14:03:50.992Z,37.22
2022-08-22T14:06:37.666Z,37.69
2022-08-22T14:09:17.585Z,37.48
2022-08-22T14:12:12.061Z,37.06
2022-08-22T14:14:46.495Z,35.91
2022-08-22T14:17:22.196Z,34.29
2022-08-22T14:19:59.505Z,33.49
2022-08-22T14:22:35.347Z,33.75
2022-08-22T14:25:10.404Z,34.38
2022-08-22T14:27:58.007Z,34.73
2022-08-22T14:30:29.574Z,34.52
2022-08-22T14:33:05.083Z,34.76
2022-08-22T14:35:38.205Z,33.77
2022-08-22T14:38:30.282Z,32.25
2022-08-22T14:41:03.306Z,32.06
2022-08-22T14:43:50.703Z,31.79
2022-08-22T14:46:26.557Z,30.90
2022-08-22T14:49:14.481Z,30.26
2022-08-22T14:51:50.883Z,31.42
2022-08-22T14:54:22.655Z,30.53
2022-08-22T14:56:59.348Z,29.34
2022-08-22T14:59:38.979Z,29.16
2022-08-22T15:02:11.351Z,29.47
2022-08-22T15:04:42.042Z,29.18
2022-08-22T15:07:11.741Z,29.07
2022-08-22T15:09:44.304Z,29.03
2022-08-22T15:12:24.898Z,29.42
2022-08-22T15:14:57.121Z,30.33
2022-08-22T15:17:44.201Z,30.11
2022-08-22T15:20:35.386Z,30.30
2022-08-22T15:23:10.392Z,30.86
2022-08-22T15:25:41.742Z,31.15
2022-08-22T15:28:20.741Z,30.70
2022-08-22T15:31:03.800Z,30.14
2022-08-22T15:33:37.821Z,29.64
2022-08-22T15:36:15.664Z,29.12
2022-08-22T15:38:49.987Z,29.51
2022-08-22T15:41:38.324Z,28.60
2022-08-22T15:44:14.977Z,28.44
2022-08-22T15:47:31.505Z,28.17
2022-08-22T15:50:06.017Z,27.60
2022-08-22T15:53:05.006Z,28.21
2022-08-22T15:55:35.428Z,27.86
2022-08-22T15:58:09.907Z,27.58
2022-08-22T16:00:47.487Z,27.32
2022-08-22T16:03:32.091Z,27.11
2022-08-22T16:06:04.272Z,26.15
2022-08-22T16:08:49.800Z,25.91
2022-08-22T16:11:32.976Z,25.93
2022-08-22T16:14:24.083Z,25.24
2022-08-22T16:17:02.274Z,25.14
2022-08-22T16:19:33.867Z,25.10
2022-08-22T16:22:13.433Z,25.75
2022-08-22T16:25:11.704Z,23.79
2022-08-22T16:27:55.487Z,23.16
2022-08-22T16:30:39.566Z,22.21
2022-08-22T16:33:14.845Z,21.68
2022-08-22T16:36:25.990Z,22.29
2022-08-22T16:38:57.921Z,23.13
2022-08-22T16:41:35.461Z,23.09
2022-08-22T16:44:15.897Z,23.30
2022-08-22T16:46:47.829Z,23.75
2022-08-22T16:49:27.534Z,24.10
2022-08-22T16:52:29.027Z,23.44
2022-08-22T16:55:06.626Z,24.07
2022-08-22T16:57:59.326Z,24.74
2022-08-22T17:00:41.314Z,24.80
2022-08-22T17:03:18.135Z,24.97
2022-08-22T17:05:57.242Z,24.82
2022-08-22T17:08:55.385Z,25.58
2022-08-22T17:11:34.210Z,26.34
2022-08-22T17:14:17.484Z,27.19
2022-08-22T17:16:57.172Z,26.72
2022-08-22T17:19:39.229Z,27.79
2022-08-22T17:22:18.638Z,28.94
2022-08-22T17:24:55.137Z,29.84
2022-08-22T17:27:34.957Z,30.32
2022-08-22T17:30:09.192Z,30.84
2022-08-22T17:32:59.089Z,31.52
2022-08-22T17:35:45.029Z,31.90
2022-08-22T17:38:25.560Z,32.33
2022-08-22T17:41:02.482Z,32.69
2022-08-22T17:43:56.106Z,33.18
2022-08-22T17:46:42.506Z,33.87
2022-08-22T17:49:20.820Z,34.40
2022-08-22T17:51:55.963Z,34.82
2022-08-22T17:54:32.735Z,34.89
2022-08-22T17:57:06.353Z,35.55
2022-08-22T17:59:57.688Z,36.00
2022-08-22T18:02:33.245Z,36.63
2022-08-22T18:05:07.135Z,37.44
2022-08-22T18:07:53.875Z,37.98
2022-08-22T18:10:31.481Z,38.48
2022-08-22T18:13:07.438Z,38.83
2022-08-22T18:15:46.020Z,39.87
2022-08-22T18:18:24.859Z,40.79
2022-08-22T18:21:02.469Z,41.60
2022-08-22T18:23:40.143Z,43.21
2022-08-22T18:26:21.533Z,44.57
2022-08-22T18:28:55.877Z,45.26
2022-08-22T18:31:47.368Z,46.98
2022-08-22T18:34:28.825Z,48.81
2022-08-22T18:37:03.409Z,49.21
2022-08-22T18:39:40.782Z,49.08
2022-08-22T18:42:19.100Z,49.91
2022-08-22T18:44:47.086Z,50.39
2022-08-22T18:47:20.226Z,50.92
2022-08-22T18:49:54.153Z,51.35
2022-08-22T18:52:43.067Z,52.07
2022-08-22T18:55:50.634Z,53.31
2022-08-22T18:58:42.331Z,54.56
2022-08-22T19:01:44.338Z,55.90
2022-08-22T19:04:30.402Z,56.22
2022-08-22T19:07:17.311Z,56.74
2022-08-22T19:10:20.558Z,57.00
2022-08-22T19:13:07.968Z,58.00
2022-08-22T19:15:50.600Z,59.24
2022-08-22T19:18:37.207Z,59.49
2022-08-22T19:21:35.850Z,60.37
2022-08-22T19:24:08.898Z,62.12
2022-08-22T19:26:41.153Z,63.94
2022-08-22T19:29:44.551Z,65.69
2022-08-22T19:32:33.603Z,66.27
2022-08-22T19:35:20.154Z,67.38
2022-08-22T19:37:57.675Z,67.58
2022-08-22T19:41:04.358Z,68.27
2022-08-22T19:43:36.748Z,69.87
2022-08-22T19:46:08.122Z,71.42
2022-08-22T19:48:45.444Z,71.05
2022-08-22T19:51:24.677Z,71.75
2022-08-22T19:54:16.507Z,71.40
2022-08-22T19:57:06.825Z,72.35
2022-08-22T19:59:50.746Z,73.42
2022-08-22T20:02:31.817Z,74.87
2022-08-22T20:05:25.341Z,75.72
2022-08-22T20:08:15.289Z,76.13
2022-08-22T20:10:58.563Z,76.61
2022-08-22T20:13:29.184Z,78.49
2022-08-22T20:16:16.059Z,79.93
2022-08-22T20:19:16.558Z,81.64
2022-08-22T20:21:50.377Z,81.59
2022-08-22T20:24:25.984Z,82.04
2022-08-22T20:27:13.478Z,83.71
2022-08-22T20:29:49.064Z,84.03
2022-08-22T20:32:21.121Z,83.98
2022-08-22T20:34:54.417Z,85.12
2022-08-22T20:37:40.419Z,86.08
2022-08-22T20:40:53.272Z,86.42
2022-08-22T20:43:28.423Z,86.64
2022-08-22T20:46:08.197Z,86.03
2022-08-22T20:48:44.062Z,86.74
2022-08-22T20:51:16.528Z,86.43
2022-08-22T20:53:52.816Z,88.13
2022-08-22T20:56:34.693Z,88.02
2022-08-22T20:59:16.758Z,87.33
2022-08-22T21:01:46.494Z,85.64
2022-08-22T21:04:18.768Z,87.03
2022-08-22T21:06:46.758Z,89.76
2022-08-22T21:09:36.210Z,88.73
2022-08-22T21:12:09.195Z,87.61
2022-08-22T21:14:45.864Z,87.16
2022-08-22T21:17:20.177Z,87.63
2022-08-22T21:19:50.480Z,89.78
2022-08-22T21:22:25.491Z,90.54
2022-08-22T21:24:56.546Z,90.24
2022-08-22T21:27:29.762Z,89.56
2022-08-22T21:30:01.120Z,88.61
2022-08-22T21:32:34.974Z,88.08
2022-08-22T21:35:04.812Z,87.80
2022-08-22T21:37:39.682Z,86.95
2022-08-22T21:40:16.909Z,85.83
2022-08-22T21:42:59.399Z,86.28
2022-08-22T21:45:32.449Z,83.42
2022-08-22T21:48:00.752Z,81.62
2022-08-22T21:50:38.082Z,82.60
2022-08-22T21:53:12.059Z,81.40
2022-08-22T21:55:44.242Z,80.80
2022-08-22T21:58:36.613Z,81.62
2022-08-22T22:01:28.609Z,81.41
2022-08-22T22:03:57.681Z,80.35
2022-08-22T22:06:26.542Z,80.40
2022-08-22T22:08:55.133Z,81.74
2022-08-22T22:11:23.457Z,80.59
2022-08-22T22:13:51.494Z,78.81
2022-08-22T22:16:25.679Z,80.52
2022-08-22T22:18:55.075Z,79.73
2022-08-22T22:21:25.377Z,80.25
2022-08-22T22:23:53.613Z,80.63
2022-08-22T22:26:26.962Z,78.44
2022-08-22T22:28:54.963Z,79.18
2022-08-22T22:31:22.870Z,77.40
2022-08-22T22:33:53.187Z,78.26
2022-08-22T22:36:26.473Z,80.30
2022-08-22T22:38:55.085Z,77.71
2022-08-22T22:41:25.384Z,78.75
2022-08-22T22:43:53.878Z,79.25
2022-08-22T22:46:22.131Z,78.23
2022-08-22T22:48:50.516Z,78.04
2022-08-22T22:51:18.486Z,78.18
2022-08-22T22:53:48.091Z,79.04
2022-08-22T22:56:21.258Z,79.06
2022-08-22T22:58:59.222Z,79.61
2022-08-22T23:02:00.455Z,81.68
2022-08-22T23:04:29.079Z,80.92
2022-08-22T23:07:00.217Z,81.30
2022-08-22T23:09:38.781Z,81.75
2022-08-22T23:12:13.759Z,80.79
2022-08-22T23:14:42.489Z,81.23
2022-08-22T23:17:10.695Z,80.34
2022-08-22T23:19:39.170Z,80.19
2022-08-22T23:22:08.069Z,80.06
2022-08-22T23:24:39.833Z,80.13
2022-08-22T23:27:09.316Z,79.97
2022-08-22T23:29:38.432Z,80.47
2022-08-22T23:32:06.793Z,81.29
2022-08-22T23:34:37.226Z,79.92
2022-08-22T23:37:07.750Z,80.70
2022-08-22T23:39:38.133Z,80.01
2022-08-22T23:42:07.866Z,80.49
2022-08-22T23:44:38.322Z,81.56
2022-08-22T23:47:08.263Z,80.66
2022-08-22T23:49:37.440Z,79.77
2022-08-22T23:52:09.239Z,80.65
2022-08-22T23:54:38.658Z,80.69
2022-08-22T23:57:11.811Z,81.01
2022-08-22T23:59:48.422Z,81.58
